Time;durP1;ratioP1;P1;durP2;ratioP2;P2;SDS_P1;SDS_P2;PMS_P1;PMS_P2;Temp;Humidity;BMP_temperature;BMP_pressure;BME280_temperature;BME280_humidity;BME280_pressure;Samples;Min_cycle;Max_cycle;Signal;HPM_P1;HPM_P2
2024/03/31 00:00:44;;;;;;;17.10;5.40;;;11.40;99.90;;;;;;5055723;28;20025;-81
2024/03/31 00:03:10;;;;;;;24.00;5.20;;;11.40;99.90;;;;;;5055371;28;20029;-83
2024/03/31 00:05:36;;;;;;;23.90;4.90;;;11.40;99.90;;;;;;5055148;28;20102;-80
2024/03/31 00:08:01;;;;;;;18.35;5.05;;;11.40;99.90;;;;;;5056670;28;20334;-80
2024/03/31 00:10:27;;;;;;;19.15;4.72;;;11.40;99.90;;;;;;5058937;28;20017;-80
2024/03/31 00:12:52;;;;;;;19.95;6.03;;;11.40;99.90;;;;;;5076769;28;20025;-80
2024/03/31 00:15:18;;;;;;;15.18;4.30;;;11.40;99.90;;;;;;5058608;28;20107;-81
2024/03/31 00:17:43;;;;;;;19.15;4.90;;;11.40;99.90;;;;;;5077166;28;20033;-82
2024/03/31 00:20:09;;;;;;;17.55;5.43;;;11.40;99.90;;;;;;5059241;28;20042;-82
2024/03/31 00:22:35;;;;;;;29.85;4.72;;;11.40;99.90;;;;;;5058574;28;20783;-82
2024/03/31 00:25:00;;;;;;;16.52;4.47;;;11.30;99.90;;;;;;5059516;28;20074;-82
2024/03/31 00:27:26;;;;;;;17.10;4.07;;;11.30;99.90;;;;;;5058629;28;20025;-82
2024/03/31 00:29:51;;;;;;;19.02;4.55;;;11.30;99.90;;;;;;5076925;28;20024;-81
2024/03/31 00:32:17;;;;;;;25.70;4.93;;;11.30;99.90;;;;;;5076107;28;20021;-83
2024/03/31 00:34:43;;;;;;;18.17;4.07;;;11.30;99.90;;;;;;5058920;28;20044;-82
2024/03/31 00:37:08;;;;;;;18.23;3.50;;;11.20;99.90;;;;;;5076697;28;20025;-83
2024/03/31 00:39:34;;;;;;;14.38;3.63;;;11.20;99.90;;;;;;5058840;28;20067;-82
2024/03/31 00:42:00;;;;;;;21.08;3.55;;;11.20;99.90;;;;;;5076527;28;20028;-80
2024/03/31 00:44:25;;;;;;;15.15;3.20;;;11.20;99.90;;;;;;5075966;28;20091;-80
2024/03/31 00:46:52;;;;;;;21.23;3.67;;;11.10;99.90;;;;;;5076552;28;20031;-80
2024/03/31 00:49:17;;;;;;;17.50;3.75;;;11.10;99.90;;;;;;5058331;28;20032;-83
2024/03/31 00:51:43;;;;;;;18.40;3.80;;;11.10;99.90;;;;;;5058781;28;20046;-81
2024/03/31 00:54:08;;;;;;;18.52;3.63;;;11.10;99.90;;;;;;5058657;28;20078;-80
2024/03/31 00:56:34;;;;;;;18.27;3.50;;;11.10;99.90;;;;;;5058133;28;20025;-80
2024/03/31 00:59:00;;;;;;;13.00;3.22;;;11.00;99.90;;;;;;5058619;28;20020;-80
2024/03/31 01:01:25;;;;;;;14.57;3.38;;;11.10;99.90;;;;;;5058416;28;20048;-80
2024/03/31 01:03:51;;;;;;;17.48;4.18;;;11.10;99.90;;;;;;5076439;28;20024;-80
2024/03/31 01:06:21;;;;;;;16.30;4.10;;;11.00;99.90;;;;;;5058102;28;20020;-81
2024/03/31 01:08:48;;;;;;;28.70;4.00;;;11.00;99.90;;;;;;5075896;28;20016;-80
2024/03/31 01:11:15;;;;;;;23.63;3.60;;;11.00;99.90;;;;;;5058052;28;20351;-90
2024/03/31 01:13:41;;;;;;;18.60;3.60;;;11.00;99.90;;;;;;5057986;28;20035;-80
2024/03/31 01:16:06;;;;;;;15.18;3.75;;;11.00;99.90;;;;;;5057980;28;20028;-80
2024/03/31 01:18:33;;;;;;;15.90;3.35;;;10.90;99.90;;;;;;5075297;28;20020;-80
2024/03/31 01:20:59;;;;;;;21.25;3.90;;;11.00;99.90;;;;;;5057714;28;20020;-81
2024/03/31 01:23:29;;;;;;;16.25;3.97;;;11.00;99.90;;;;;;5075760;28;20357;-81
2024/03/31 01:26:00;;;;;;;13.13;3.08;;;11.00;99.90;;;;;;5058265;28;20021;-81
2024/03/31 01:28:25;;;;;;;16.07;3.43;;;11.10;99.90;;;;;;5057692;28;20107;-81
2024/03/31 01:30:51;;;;;;;19.70;3.95;;;11.10;99.90;;;;;;5058336;28;20116;-81
2024/03/31 01:33:16;;;;;;;13.82;3.95;;;11.10;99.90;;;;;;5075049;28;20036;-87
2024/03/31 01:35:42;;;;;;;17.65;4.03;;;11.10;99.90;;;;;;5057191;28;20017;-81
2024/03/31 01:38:09;;;;;;;19.65;3.80;;;11.10;99.90;;;;;;5057896;28;20051;-81
2024/03/31 01:40:35;;;;;;;21.02;4.00;;;11.00;99.90;;;;;;5075142;28;20016;-81
2024/03/31 01:43:00;;;;;;;17.17;4.15;;;11.00;99.90;;;;;;5075525;28;20066;-80
2024/03/31 01:45:26;;;;;;;18.80;4.10;;;11.00;99.90;;;;;;5057124;28;20048;-82
2024/03/31 01:47:52;;;;;;;18.23;3.67;;;11.00;99.90;;;;;;5075683;28;20480;-81
2024/03/31 01:50:17;;;;;;;13.05;4.57;;;11.00;99.90;;;;;;5075274;28;20066;-85
2024/03/31 01:52:43;;;;;;;11.93;4.00;;;11.00;99.90;;;;;;5057487;28;20028;-81
2024/03/31 01:55:08;;;;;;;16.27;3.70;;;11.00;99.90;;;;;;5057723;28;20032;-81
2024/03/31 01:57:34;;;;;;;14.10;3.80;;;11.00;99.90;;;;;;5057320;28;20028;-81
2024/03/31 01:59:59;;;;;;;16.42;4.35;;;11.00;99.90;;;;;;5075082;28;20080;-81
2024/03/31 02:02:25;;;;;;;16.20;4.22;;;11.00;99.90;;;;;;5057141;28;20017;-80
2024/03/31 02:04:50;;;;;;;21.65;4.57;;;11.00;99.90;;;;;;5074893;28;20032;-81
2024/03/31 02:07:16;;;;;;;14.85;4.38;;;11.10;99.90;;;;;;5057347;28;20103;-81
2024/03/31 02:09:42;;;;;;;11.10;3.92;;;11.10;99.90;;;;;;5074093;28;20025;-81
2024/03/31 02:12:08;;;;;;;14.45;4.15;;;11.00;99.90;;;;;;5057460;28;20052;-80
2024/03/31 02:14:34;;;;;;;17.05;4.07;;;11.00;99.90;;;;;;5056632;28;20040;-81
2024/03/31 02:16:59;;;;;;;18.65;3.35;;;11.10;99.90;;;;;;5057461;28;20031;-80
2024/03/31 02:19:25;;;;;;;13.20;3.88;;;11.00;99.90;;;;;;5056767;28;20454;-81
2024/03/31 02:21:51;;;;;;;15.20;4.22;;;11.00;99.90;;;;;;5056963;28;20071;-80
2024/03/31 02:24:17;;;;;;;15.90;3.72;;;11.10;99.90;;;;;;5056694;28;20028;-81
2024/03/31 02:26:43;;;;;;;17.90;4.57;;;11.00;99.90;;;;;;5056541;28;20035;-80
2024/03/31 02:29:10;;;;;;;16.63;4.20;;;10.90;99.90;;;;;;5057062;28;20105;-80
2024/03/31 02:31:36;;;;;;;12.65;3.92;;;11.00;99.90;;;;;;5056567;28;20031;-80
2024/03/31 02:34:03;;;;;;;18.13;4.20;;;11.00;99.90;;;;;;5056852;28;20024;-81
2024/03/31 02:36:28;;;;;;;12.18;3.90;;;10.90;99.90;;;;;;5073967;28;20016;-80
2024/03/31 02:38:54;;;;;;;12.25;3.85;;;10.90;99.90;;;;;;5056568;28;20028;-80
2024/03/31 02:41:20;;;;;;;15.55;4.45;;;10.80;99.90;;;;;;5056525;28;20021;-84
2024/03/31 02:43:45;;;;;;;20.27;3.72;;;10.90;99.90;;;;;;5056023;28;20026;-79
2024/03/31 02:46:11;;;;;;;20.08;4.45;;;10.80;99.90;;;;;;5056625;28;20028;-83
2024/03/31 02:48:36;;;;;;;15.07;4.35;;;10.80;99.90;;;;;;5056057;28;20024;-82
2024/03/31 02:51:02;;;;;;;17.00;3.88;;;10.80;99.90;;;;;;5074450;28;20505;-82
2024/03/31 02:53:28;;;;;;;13.68;3.92;;;10.80;99.90;;;;;;5056093;28;20028;-83
2024/03/31 02:55:53;;;;;;;16.33;4.72;;;10.80;99.90;;;;;;5056556;28;20016;-82
2024/03/31 02:58:19;;;;;;;17.10;4.00;;;10.80;99.90;;;;;;5074287;28;20412;-82
2024/03/31 03:00:44;;;;;;;14.27;4.00;;;10.80;99.90;;;;;;5055938;28;20021;-82
2024/03/31 03:03:10;;;;;;;15.93;3.90;;;10.80;99.90;;;;;;5083070;28;20028;-82
2024/03/31 03:05:35;;;;;;;13.63;4.20;;;10.90;99.90;;;;;;5076009;28;20019;-82
2024/03/31 03:08:01;;;;;;;17.95;3.90;;;11.00;99.90;;;;;;5076324;28;20101;-80
2024/03/31 03:10:27;;;;;;;13.60;4.10;;;11.00;99.90;;;;;;5075980;28;20024;-81
2024/03/31 03:12:52;;;;;;;16.17;4.53;;;10.90;99.90;;;;;;5093928;28;20016;-80
2024/03/31 03:15:18;;;;;;;15.20;4.03;;;10.90;99.90;;;;;;5093575;28;20036;-80
2024/03/31 03:17:46;;;;;;;13.23;3.95;;;10.90;99.90;;;;;;5075496;28;20096;-81
2024/03/31 03:20:12;;;;;;;15.68;3.95;;;10.90;99.90;;;;;;5076207;28;20046;-79
2024/03/31 03:22:38;;;;;;;17.25;4.07;;;10.90;99.90;;;;;;5075278;28;20533;-81
2024/03/31 03:25:03;;;;;;;17.95;4.60;;;10.90;99.90;;;;;;5076304;28;20035;-81
2024/03/31 03:27:29;;;;;;;15.38;4.13;;;10.90;99.90;;;;;;5093403;28;20020;-82
2024/03/31 03:29:56;;;;;;;12.57;4.00;;;10.80;99.90;;;;;;5093770;28;20050;-81
2024/03/31 03:32:21;;;;;;;16.48;4.32;;;10.80;99.90;;;;;;5075909;28;20027;-81
2024/03/31 03:34:50;;;;;;;14.65;4.25;;;10.80;99.90;;;;;;5093376;28;20033;-82
2024/03/31 03:37:15;;;;;;;15.00;4.40;;;10.80;99.90;;;;;;5093831;28;20016;-81
2024/03/31 03:39:41;;;;;;;20.77;4.60;;;10.80;99.90;;;;;;5074852;28;20047;-80
2024/03/31 03:42:06;;;;;;;18.50;4.28;;;10.80;99.90;;;;;;5075384;28;20024;-82
2024/03/31 03:44:33;;;;;;;15.77;4.35;;;10.70;99.90;;;;;;5074699;28;20048;-82
2024/03/31 03:46:58;;;;;;;11.23;3.75;;;10.80;99.90;;;;;;5077529;28;20529;-82
2024/03/31 03:49:24;;;;;;;17.27;4.32;;;10.80;99.90;;;;;;5077107;28;20076;-84
2024/03/31 03:51:49;;;;;;;18.38;4.68;;;10.80;99.90;;;;;;5075871;28;20480;-82
2024/03/31 03:54:15;;;;;;;13.45;4.05;;;10.70;99.90;;;;;;5076248;28;20032;-82
2024/03/31 03:56:44;;;;;;;11.48;3.78;;;10.70;99.90;;;;;;5076756;28;20059;-82
2024/03/31 03:59:12;;;;;;;13.90;4.00;;;10.70;99.90;;;;;;5076116;28;20020;-82
2024/03/31 04:01:38;;;;;;;18.67;4.03;;;10.70;99.90;;;;;;5076354;28;20025;-81
2024/03/31 04:04:04;;;;;;;21.85;4.35;;;10.60;99.90;;;;;;5075540;28;20027;-81
2024/03/31 04:06:30;;;;;;;11.45;3.90;;;10.60;99.90;;;;;;5076259;28;20056;-80
2024/03/31 04:08:55;;;;;;;15.65;4.43;;;10.60;99.90;;;;;;5075378;28;20488;-80
2024/03/31 04:11:22;;;;;;;18.67;4.30;;;10.60;99.90;;;;;;5076172;28;20052;-80
2024/03/31 04:13:48;;;;;;;12.43;4.35;;;10.60;99.90;;;;;;5075152;28;20048;-81
2024/03/31 04:16:15;;;;;;;15.85;4.45;;;10.60;99.90;;;;;;5076256;28;20024;-80
2024/03/31 04:18:41;;;;;;;13.70;3.80;;;10.60;99.90;;;;;;5075590;28;20043;-80
2024/03/31 04:21:10;;;;;;;15.38;3.80;;;10.60;99.90;;;;;;5077259;28;20020;-79
2024/03/31 04:23:36;;;;;;;13.55;4.00;;;10.50;99.90;;;;;;5076562;28;20025;-80
2024/03/31 04:26:02;;;;;;;11.57;3.40;;;10.50;99.90;;;;;;5075923;28;20513;-80
2024/03/31 04:28:28;;;;;;;14.10;3.63;;;10.50;99.90;;;;;;5076831;28;20151;-85
2024/03/31 04:30:54;;;;;;;14.07;3.50;;;10.50;99.90;;;;;;5075613;28;20031;-79
2024/03/31 04:33:19;;;;;;;13.30;3.72;;;10.50;99.90;;;;;;5075645;28;20078;-80
2024/03/31 04:35:45;;;;;;;10.57;3.92;;;10.40;99.90;;;;;;5075124;28;20020;-80
2024/03/31 04:38:11;;;;;;;10.88;3.28;;;10.40;99.90;;;;;;5075893;28;20020;-79
2024/03/31 04:40:36;;;;;;;13.85;3.53;;;10.40;99.90;;;;;;5075998;28;20027;-80
2024/03/31 04:43:02;;;;;;;13.68;3.30;;;10.40;99.90;;;;;;5075261;28;20025;-80
2024/03/31 04:45:28;;;;;;;11.10;3.20;;;10.40;99.90;;;;;;5091128;28;20044;-86
2024/03/31 04:47:54;;;;;;;15.30;3.55;;;10.40;99.90;;;;;;5078193;28;20453;-80
2024/03/31 04:50:20;;;;;;;10.13;3.15;;;10.40;99.90;;;;;;5078874;28;20108;-80
2024/03/31 04:52:46;;;;;;;12.98;3.92;;;10.30;99.90;;;;;;5078263;28;20111;-80
2024/03/31 04:55:11;;;;;;;10.18;3.30;;;10.20;99.90;;;;;;5095360;28;20032;-80
2024/03/31 04:57:37;;;;;;;15.07;3.78;;;10.20;99.90;;;;;;5077859;28;20467;-81
2024/03/31 05:00:03;;;;;;;15.02;3.60;;;10.20;99.90;;;;;;5096374;28;20440;-80
2024/03/31 05:02:29;;;;;;;12.38;3.90;;;10.00;99.90;;;;;;5078465;28;20024;-85
2024/03/31 05:04:55;;;;;;;9.80;3.40;;;10.10;99.90;;;;;;5078345;28;20060;-80
2024/03/31 05:07:20;;;;;;;13.63;3.63;;;10.00;99.90;;;;;;5078427;28;20483;-81
2024/03/31 05:09:46;;;;;;;15.48;3.58;;;10.00;99.90;;;;;;5095697;28;20468;-80
2024/03/31 05:12:12;;;;;;;11.80;3.00;;;10.00;99.90;;;;;;5078644;28;20027;-80
2024/03/31 05:14:38;;;;;;;14.02;3.28;;;10.00;99.90;;;;;;5095518;28;20044;-80
2024/03/31 05:17:03;;;;;;;12.35;3.25;;;10.00;99.90;;;;;;5096052;28;20028;-80
2024/03/31 05:19:30;;;;;;;9.60;3.42;;;10.00;99.90;;;;;;5096045;28;20020;-83
2024/03/31 05:21:55;;;;;;;12.20;3.42;;;10.00;99.90;;;;;;5078168;28;20031;-81
2024/03/31 05:24:21;;;;;;;13.27;4.15;;;10.00;99.90;;;;;;5096112;28;20024;-80
2024/03/31 05:26:46;;;;;;;13.85;4.22;;;10.10;99.90;;;;;;5095776;28;20052;-81
2024/03/31 05:29:12;;;;;;;14.60;3.40;;;10.00;99.90;;;;;;5077986;28;20115;-81
2024/03/31 05:31:37;;;;;;;17.80;3.92;;;10.00;99.90;;;;;;5077695;28;20054;-82
2024/03/31 05:34:06;;;;;;;14.07;3.33;;;10.00;99.90;;;;;;5077912;28;20028;-81
2024/03/31 05:36:31;;;;;;;12.90;3.28;;;10.00;99.90;;;;;;5077747;28;20038;-83
2024/03/31 05:38:57;;;;;;;15.52;3.50;;;9.90;99.90;;;;;;5095590;28;20504;-82
2024/03/31 05:41:22;;;;;;;9.95;3.72;;;9.90;99.90;;;;;;5095728;28;20047;-82
2024/03/31 05:43:48;;;;;;;13.70;4.07;;;9.90;99.90;;;;;;5094670;28;20024;-82
2024/03/31 05:46:14;;;;;;;13.82;3.05;;;10.00;99.90;;;;;;5096008;28;20364;-81
2024/03/31 05:48:40;;;;;;;11.73;3.10;;;10.00;99.90;;;;;;5077098;28;20055;-82
2024/03/31 05:51:05;;;;;;;11.50;3.50;;;10.10;99.90;;;;;;5095063;28;20453;-81
2024/03/31 05:53:31;;;;;;;17.08;3.53;;;10.10;99.90;;;;;;5077253;28;20031;-84
2024/03/31 05:55:57;;;;;;;11.82;3.63;;;10.10;99.90;;;;;;5076932;28;20059;-80
2024/03/31 05:58:23;;;;;;;14.20;3.63;;;10.10;99.90;;;;;;5095388;28;20020;-81
2024/03/31 06:00:49;;;;;;;17.15;3.42;;;10.20;99.90;;;;;;5094616;28;20456;-81
2024/03/31 06:03:14;;;;;;;13.63;3.80;;;10.20;99.90;;;;;;5095256;28;20016;-81
2024/03/31 06:05:40;;;;;;;13.38;3.38;;;10.20;99.90;;;;;;5094616;28;20077;-82
2024/03/31 06:08:06;;;;;;;16.05;3.60;;;10.30;99.90;;;;;;5095380;28;20094;-81
2024/03/31 06:10:32;;;;;;;16.42;3.97;;;10.30;99.90;;;;;;5077220;28;20024;-82
2024/03/31 06:12:58;;;;;;;15.55;3.80;;;10.30;99.90;;;;;;5076373;28;20516;-81
2024/03/31 06:15:23;;;;;;;9.77;3.05;;;10.30;99.90;;;;;;5076847;28;20036;-81
2024/03/31 06:17:49;;;;;;;15.38;4.35;;;10.50;99.90;;;;;;5076355;28;20119;-81
2024/03/31 06:20:14;;;;;;;11.02;3.00;;;10.50;99.90;;;;;;5077214;28;20461;-81
2024/03/31 06:22:40;;;;;;;10.73;2.97;;;10.50;99.90;;;;;;5094523;28;20024;-81
2024/03/31 06:25:06;;;;;;;12.30;3.60;;;10.60;99.90;;;;;;5077294;28;20020;-80
2024/03/31 06:27:34;;;;;;;8.77;3.05;;;10.60;99.90;;;;;;5094791;28;20020;-80
2024/03/31 06:30:00;;;;;;;15.52;3.15;;;10.60;99.90;;;;;;5076588;28;20024;-80
2024/03/31 06:32:25;;;;;;;13.82;3.15;;;10.60;99.90;;;;;;5077040;28;20028;-80
2024/03/31 06:34:51;;;;;;;12.98;3.08;;;10.70;99.90;;;;;;5076620;28;20028;-80
2024/03/31 06:37:18;;;;;;;9.90;2.95;;;10.70;99.90;;;;;;5094820;28;20046;-79
2024/03/31 06:39:44;;;;;;;9.52;3.05;;;10.70;99.90;;;;;;5076448;28;20031;-80
2024/03/31 06:42:10;;;;;;;14.50;3.35;;;10.80;99.90;;;;;;5076754;28;20027;-79
2024/03/31 06:44:35;;;;;;;11.90;3.67;;;10.80;99.90;;;;;;5076274;28;20048;-86
2024/03/31 06:47:01;;;;;;;9.55;2.72;;;10.90;99.90;;;;;;5076651;28;20020;-80
2024/03/31 06:49:27;;;;;;;16.40;4.10;;;10.90;99.90;;;;;;5077006;28;20079;-83
2024/03/31 06:51:52;;;;;;;11.32;2.88;;;11.00;99.90;;;;;;5076709;28;20016;-82
2024/03/31 06:54:18;;;;;;;10.82;2.75;;;11.10;99.90;;;;;;5077105;28;20058;-81
2024/03/31 06:56:44;;;;;;;10.07;3.17;;;11.20;99.90;;;;;;5076354;28;20020;-84
2024/03/31 06:59:10;;;;;;;14.30;3.17;;;11.20;99.90;;;;;;5094553;28;20024;-84
2024/03/31 07:01:35;;;;;;;14.30;3.33;;;11.30;99.90;;;;;;5076566;28;20020;-85
2024/03/31 07:04:01;;;;;;;15.02;2.97;;;11.30;99.90;;;;;;5076303;28;20399;-82
2024/03/31 07:06:26;;;;;;;12.95;2.72;;;11.30;99.90;;;;;;5094324;28;20027;-82
2024/03/31 07:08:52;;;;;;;9.32;2.60;;;11.40;99.90;;;;;;5093877;28;20017;-81
2024/03/31 07:11:18;;;;;;;14.27;2.30;;;11.40;99.90;;;;;;5076669;28;20020;-82
2024/03/31 07:13:44;;;;;;;11.82;2.40;;;11.40;99.90;;;;;;5093789;28;20068;-82
2024/03/31 07:16:09;;;;;;;9.65;2.28;;;11.50;99.90;;;;;;5076839;28;20033;-82
2024/03/31 07:18:35;;;;;;;14.60;2.17;;;11.50;99.90;;;;;;5075769;28;20026;-82
2024/03/31 07:21:01;;;;;;;11.50;1.90;;;11.50;99.90;;;;;;5075999;28;20441;-81
2024/03/31 07:23:26;;;;;;;11.90;2.28;;;11.50;99.90;;;;;;5076532;28;20024;-81
2024/03/31 07:25:52;;;;;;;12.90;2.58;;;11.50;99.90;;;;;;5075797;28;20020;-82
2024/03/31 07:28:18;;;;;;;8.60;1.98;;;11.50;99.90;;;;;;5075920;28;20023;-80
2024/03/31 07:30:45;;;;;;;9.10;1.92;;;11.60;99.90;;;;;;5093953;28;20077;-80
2024/03/31 07:33:11;;;;;;;7.43;2.17;;;11.60;99.90;;;;;;5076358;28;20027;-82
2024/03/31 07:35:36;;;;;;;10.45;1.80;;;11.60;99.90;;;;;;5093998;28;20111;-81
2024/03/31 07:38:02;;;;;;;10.65;1.98;;;11.60;99.90;;;;;;5093645;28;20073;-82
2024/03/31 07:40:27;;;;;;;12.13;2.10;;;11.60;99.90;;;;;;5076474;28;20027;-84
2024/03/31 07:42:54;;;;;;;11.40;2.28;;;11.60;99.90;;;;;;5075769;28;20516;-83
2024/03/31 07:45:20;;;;;;;14.25;2.25;;;11.60;99.90;;;;;;5072287;28;20040;-82
2024/03/31 07:47:47;;;;;;;9.98;2.00;;;11.60;99.90;;;;;;5065884;28;20039;-83
2024/03/31 07:50:12;;;;;;;15.07;1.85;;;11.60;99.90;;;;;;5083128;28;20020;-83
2024/03/31 07:52:38;;;;;;;8.30;1.77;;;11.60;99.90;;;;;;5056850;28;20465;-82
2024/03/31 07:55:05;;;;;;;5.07;1.65;;;11.60;99.90;;;;;;5055371;28;20500;-82
2024/03/31 07:57:30;;;;;;;9.38;2.08;;;11.60;99.90;;;;;;5055847;28;20013;-83
2024/03/31 07:59:56;;;;;;;9.70;1.23;;;11.70;99.90;;;;;;5055762;28;20017;-82
2024/03/31 08:02:21;;;;;;;7.63;1.30;;;11.80;99.90;;;;;;5056144;28;20021;-83
2024/03/31 08:04:47;;;;;;;8.23;1.98;;;11.90;99.90;;;;;;5055356;28;20027;-83
2024/03/31 08:07:13;;;;;;;9.45;1.90;;;12.00;99.90;;;;;;5056001;28;20070;-83
2024/03/31 08:09:38;;;;;;;6.55;1.30;;;12.00;99.90;;;;;;5073565;28;20433;-82
2024/03/31 08:12:04;;;;;;;6.22;1.30;;;12.00;99.90;;;;;;5072391;28;20020;-82
2024/03/31 08:14:30;;;;;;;7.65;1.50;;;12.10;99.90;;;;;;5093927;28;20426;-81
2024/03/31 08:16:55;;;;;;;8.35;1.95;;;12.20;99.90;;;;;;5093627;28;20028;-82
2024/03/31 08:19:21;;;;;;;9.18;1.42;;;12.30;99.90;;;;;;5075529;28;20063;-83
2024/03/31 08:21:46;;;;;;;15.82;1.50;;;12.40;99.90;;;;;;5093018;28;20024;-80
2024/03/31 08:24:12;;;;;;;10.07;1.85;;;12.60;99.90;;;;;;5075502;28;20024;-83
2024/03/31 08:26:38;;;;;;;11.55;1.63;;;12.70;99.90;;;;;;5075638;28;20020;-83
2024/03/31 08:29:03;;;;;;;12.15;1.50;;;12.80;99.90;;;;;;5076313;28;20024;-82
2024/03/31 08:31:29;;;;;;;9.93;2.17;;;12.90;99.90;;;;;;5078839;28;20020;-82
2024/03/31 08:33:54;;;;;;;12.35;1.92;;;13.00;99.90;;;;;;5078279;28;20031;-93
2024/03/31 08:36:20;;;;;;;13.68;1.77;;;13.10;99.90;;;;;;5079250;28;20020;-87
2024/03/31 08:38:46;;;;;;;7.15;1.55;;;13.30;99.90;;;;;;5078688;28;20019;-89
2024/03/31 08:41:20;;;;;;;13.13;1.75;;;13.30;99.90;;;;;;5078218;28;20027;-90
2024/03/31 08:43:48;;;;;;;11.25;1.58;;;13.40;99.90;;;;;;5067152;28;20434;-85
2024/03/31 08:46:14;;;;;;;11.27;1.45;;;13.50;99.90;;;;;;5083137;28;20028;-85
2024/03/31 08:48:40;;;;;;;8.18;1.50;;;13.50;99.90;;;;;;5077907;28;20031;-84
2024/03/31 08:51:06;;;;;;;8.32;1.40;;;13.50;99.90;;;;;;5096928;28;20078;-83
2024/03/31 08:53:33;;;;;;;10.13;1.77;;;13.50;99.90;;;;;;5078677;28;20031;-87
2024/03/31 08:55:59;;;;;;;12.07;1.90;;;13.50;99.90;;;;;;5078406;28;20020;-84
2024/03/31 08:58:24;;;;;;;9.75;1.90;;;13.50;99.90;;;;;;5078522;28;20024;-83
2024/03/31 09:00:51;;;;;;;11.43;2.95;;;13.60;99.90;;;;;;5078338;28;20107;-84
2024/03/31 09:03:17;;;;;;;5.78;1.10;;;13.70;99.90;;;;;;5078885;28;20119;-87
2024/03/31 09:05:43;;;;;;;7.70;1.30;;;13.90;99.90;;;;;;5078371;28;20024;-87
2024/03/31 09:08:09;;;;;;;6.78;1.17;;;13.90;99.90;;;;;;5078914;28;20027;-82
2024/03/31 09:10:36;;;;;;;14.45;1.60;;;14.00;99.90;;;;;;5078501;28;20024;-89
2024/03/31 09:13:08;;;;;;;9.20;1.33;;;14.10;99.90;;;;;;5077691;28;20031;-86
2024/03/31 09:15:39;;;;;;;6.70;1.42;;;14.10;99.90;;;;;;5096391;28;20126;-86
2024/03/31 09:18:05;;;;;;;12.60;2.10;;;14.10;99.90;;;;;;5081091;28;20117;-88
2024/03/31 09:20:30;;;;;;;11.27;1.40;;;14.10;99.90;;;;;;5076040;28;20434;-84
2024/03/31 09:22:56;;;;;;;17.63;1.73;;;14.10;99.90;;;;;;5075250;28;20017;-88
2024/03/31 09:25:24;;;;;;;11.07;1.70;;;14.10;99.90;;;;;;5059559;28;20112;-85
2024/03/31 09:27:49;;;;;;;9.63;1.50;;;14.10;99.90;;;;;;5077536;28;20031;-84
2024/03/31 09:30:15;;;;;;;6.43;1.10;;;14.10;99.90;;;;;;5096072;28;20024;-83
2024/03/31 09:32:40;;;;;;;10.90;1.15;;;14.10;99.90;;;;;;5095512;28;20027;-84
2024/03/31 09:35:06;;;;;;;8.48;1.50;;;14.10;99.90;;;;;;5095033;28;20084;-85
2024/03/31 09:37:35;;;;;;;8.82;1.10;;;14.00;99.90;;;;;;5081478;28;20027;-84
2024/03/31 09:40:04;;;;;;;5.32;1.42;;;14.10;99.90;;;;;;5057154;28;20024;-81
2024/03/31 09:42:30;;;;;;;11.75;1.40;;;14.10;99.90;;;;;;5056987;28;20361;-81
2024/03/31 09:44:56;;;;;;;11.35;1.60;;;14.20;99.90;;;;;;5057198;28;20090;-82
2024/03/31 09:47:28;;;;;;;6.90;1.17;;;14.30;99.90;;;;;;5075395;28;20025;-80
2024/03/31 09:49:59;;;;;;;;;;;14.20;99.90;;;;;;5057582;28;20112;-86
2024/03/31 09:52:30;;;;;;;8.50;1.98;;;14.20;99.90;;;;;;5069102;28;19900;-84
2024/03/31 09:55:01;;;;;;;11.82;1.20;;;14.20;99.90;;;;;;5076945;28;20063;-82
2024/03/31 09:57:29;;;;;;;7.03;1.10;;;14.20;99.90;;;;;;5067018;28;20032;-80
2024/03/31 09:59:56;;;;;;;10.85;1.58;;;14.20;99.90;;;;;;5057023;28;20048;-80
2024/03/31 10:02:25;;;;;;;12.05;1.25;;;14.20;99.90;;;;;;5074674;28;20023;-82
2024/03/31 10:05:08;;;;;;;12.38;2.03;;;14.20;99.90;;;;;;5074881;28;20025;-80
2024/03/31 10:07:35;;;;;;;4.95;1.10;;;14.20;99.90;;;;;;5074968;28;20035;-80
2024/03/31 10:10:02;;;;;;;7.05;0.95;;;14.30;99.90;;;;;;5073944;28;20368;-80
2024/03/31 10:12:30;;;;;;;7.15;0.98;;;14.30;99.90;;;;;;5056826;28;20060;-80
2024/03/31 10:14:56;;;;;;;8.15;1.70;;;14.40;99.90;;;;;;5056635;28;20032;-80
2024/03/31 10:17:22;;;;;;;12.68;1.48;;;14.50;99.90;;;;;;5057204;28;20033;-80
2024/03/31 10:19:50;;;;;;;15.57;2.15;;;14.50;99.90;;;;;;5056374;28;20021;-80
2024/03/31 10:22:16;;;;;;;13.02;2.08;;;14.60;99.90;;;;;;5074558;28;20051;-80
2024/03/31 10:24:42;;;;;;;9.88;1.42;;;14.60;99.90;;;;;;5056795;28;20052;-82
2024/03/31 10:27:08;;;;;;;10.50;1.48;;;14.50;99.90;;;;;;5056011;28;20021;-84
2024/03/31 10:29:35;;;;;;;14.70;1.90;;;14.50;99.90;;;;;;5056923;28;20154;-80
2024/03/31 10:32:01;;;;;;;7.13;1.42;;;14.50;99.90;;;;;;5056418;28;20026;-82
2024/03/31 10:34:27;;;;;;;9.70;1.42;;;14.40;99.90;;;;;;5056583;28;20035;-82
2024/03/31 10:36:54;;;;;;;13.00;2.22;;;14.40;99.90;;;;;;5056264;28;20017;-80
2024/03/31 10:39:21;;;;;;;7.28;1.40;;;14.40;99.90;;;;;;5056453;28;20024;-79
2024/03/31 10:41:48;;;;;;;10.48;2.17;;;14.50;99.90;;;;;;5073424;28;20020;-83
2024/03/31 10:44:15;;;;;;;11.73;1.95;;;14.60;99.90;;;;;;5074046;28;20091;-79
2024/03/31 10:46:42;;;;;;;12.73;1.70;;;14.70;99.90;;;;;;5076734;28;20028;-79
2024/03/31 10:49:09;;;;;;;8.13;1.40;;;14.70;99.90;;;;;;5076168;28;20024;-81
2024/03/31 10:51:39;;;;;;;17.38;1.65;;;14.80;99.90;;;;;;5076279;28;20024;-80
2024/03/31 10:54:28;;;;;;;10.13;1.67;;;14.90;99.90;;;;;;5075325;28;20522;-81
2024/03/31 10:57:20;;;;;;;15.02;2.03;;;15.10;99.90;;;;;;5076265;28;20016;-84
2024/03/31 10:59:45;;;;;;;;;;;15.20;99.90;;;;;;5069156;28;20068;-84
2024/03/31 11:02:14;;;;;;;7.55;1.33;;;15.30;99.90;;;;;;5060218;28;19931;-82
2024/03/31 11:04:41;;;;;;;14.13;1.73;;;15.40;99.90;;;;;;5073962;28;20104;-78
2024/03/31 11:07:10;;;;;;;11.25;1.83;;;15.60;99.90;;;;;;5082851;28;20112;-78
2024/03/31 11:09:40;;;;;;;12.05;1.58;;;15.70;99.90;;;;;;5076283;28;20030;-78
2024/03/31 11:12:12;;;;;;;16.38;1.50;;;15.80;99.90;;;;;;5083970;28;20111;-79
2024/03/31 11:14:38;;;;;;;19.38;1.67;;;15.80;99.90;;;;;;5075737;28;20452;-79
2024/03/31 11:17:04;;;;;;;9.15;1.52;;;16.00;99.90;;;;;;5087241;28;20025;-78
2024/03/31 11:19:31;;;;;;;14.00;1.92;;;16.00;99.90;;;;;;5073718;28;20021;-79
2024/03/31 11:22:04;;;;;;;10.65;1.75;;;16.10;99.90;;;;;;5073128;28;20023;-76
2024/03/31 11:24:31;;;;;;;17.60;1.92;;;16.20;99.90;;;;;;5055386;28;20032;-76
2024/03/31 11:26:58;;;;;;;14.85;2.15;;;16.30;99.90;;;;;;5072748;28;20020;-77
2024/03/31 11:29:24;;;;;;;15.95;1.98;;;16.30;99.90;;;;;;5055189;28;20123;-76
2024/03/31 11:31:50;;;;;;;12.68;1.80;;;16.20;99.90;;;;;;5073042;28;20059;-79
2024/03/31 11:34:17;;;;;;;11.82;2.17;;;16.20;99.90;;;;;;5055395;28;20024;-76
2024/03/31 11:36:44;;;;;;;10.88;1.77;;;16.20;99.90;;;;;;5088779;28;20461;-82
2024/03/31 11:39:11;;;;;;;11.75;1.75;;;16.30;99.90;;;;;;5072846;28;20509;-82
2024/03/31 11:41:37;;;;;;;12.05;2.08;;;16.40;99.90;;;;;;5073782;28;20024;-82
2024/03/31 11:44:03;;;;;;;8.63;1.67;;;16.50;99.90;;;;;;5054816;28;20098;-79
2024/03/31 11:46:29;;;;;;;12.23;2.03;;;16.50;99.90;;;;;;5055425;28;20461;-81
2024/03/31 11:48:58;;;;;;;8.10;1.40;;;16.60;99.90;;;;;;5073200;28;20016;-85
2024/03/31 11:51:25;;;;;;;15.13;1.63;;;16.70;99.90;;;;;;5056227;28;20021;-85
2024/03/31 11:53:51;;;;;;;13.70;1.67;;;16.70;99.90;;;;;;5055461;28;20035;-85
2024/03/31 11:56:16;;;;;;;11.60;1.95;;;16.70;99.90;;;;;;5055902;28;20020;-82
2024/03/31 11:58:42;;;;;;;12.43;1.95;;;16.80;99.90;;;;;;5055696;28;20017;-90
2024/03/31 12:01:10;;;;;;;11.48;2.30;;;16.80;99.90;;;;;;5073235;28;20175;-79
2024/03/31 12:03:36;;;;;;;15.00;1.58;;;16.90;99.90;;;;;;5055965;28;20510;-79
2024/03/31 12:06:02;;;;;;;10.73;1.20;;;17.20;99.90;;;;;;5076632;28;20025;-79
2024/03/31 12:08:29;;;;;;;13.88;2.38;;;17.40;99.90;;;;;;5058770;28;20089;-78
2024/03/31 12:10:55;;;;;;;9.00;1.40;;;17.50;99.90;;;;;;5058523;28;20020;-78
2024/03/31 12:13:21;;;;;;;13.13;1.75;;;17.60;99.90;;;;;;5058923;28;20048;-77
2024/03/31 12:15:46;;;;;;;9.15;1.90;;;17.60;99.90;;;;;;5058811;28;20024;-76
2024/03/31 12:18:12;;;;;;;9.07;1.83;;;17.60;99.90;;;;;;5076834;28;20068;-80
2024/03/31 12:20:38;;;;;;;15.23;1.55;;;17.70;99.90;;;;;;5059178;28;20017;-79
2024/03/31 12:23:05;;;;;;;9.70;1.83;;;17.80;99.90;;;;;;5076473;28;20028;-82
2024/03/31 12:25:33;;;;;;;12.00;1.60;;;17.70;99.90;;;;;;5076670;28;20036;-79
2024/03/31 12:27:59;;;;;;;9.73;1.92;;;17.90;99.90;;;;;;5058866;28;20366;-83
2024/03/31 12:30:34;;;;;;;11.15;1.58;;;18.10;99.90;;;;;;5059333;28;20020;-82
2024/03/31 12:33:00;;;;;;;9.35;1.65;;;18.30;99.90;;;;;;5059145;28;20021;-85
2024/03/31 12:35:25;;;;;;;13.80;1.50;;;18.30;99.90;;;;;;5059198;28;20033;-76